Time;durP1;ratioP1;P1;durP2;ratioP2;P2;SDS_P1;SDS_P2;PMS_P1;PMS_P2;Temp;Humidity;BMP_temperature;BMP_pressure;BME280_temperature;BME280_humidity;BME280_pressure;Samples;Min_cycle;Max_cycle;Signal;HPM_P1;HPM_P2
2023/06/17 00:01:38;;;;;;;;;;;;;;;;;;5024587;28;90014;-72
2023/06/17 00:04:03;;;;;;;;;;;;;;;;;;5027330;28;89688;-72
2023/06/17 00:06:28;;;;;;;;;;;;;;;;;;5027328;27;90791;-70
2023/06/17 00:08:54;;;;;;;;;;;;;;;;;;5025207;28;89435;-70
2023/06/17 00:11:20;;;;;;;;;;;;;;;;;;5027672;27;88965;-66
2023/06/17 00:13:46;;;;;;;;;;;;;;;;;;5028070;28;89002;-73
2023/06/17 00:16:12;;;;;;;;;;;;;;;;;;5027093;28;89708;-68
2023/06/17 00:18:39;;;;;;;;;;;;;;;;;;5025453;27;89912;-66
2023/06/17 00:21:05;;;;;;;;;;;;;;;;;;5029237;27;90613;-66
2023/06/17 00:23:30;;;;;;;;;;;;;;;;;;5026948;28;89011;-69
2023/06/17 00:25:56;;;;;;;;;;;;;;;;;;5026195;27;89648;-71
2023/06/17 00:28:21;;;;;;;;;;;;;;;;;;5026967;28;89259;-70
2023/06/17 00:30:46;;;;;;;;;;;;;;;;;;5026026;28;88957;-70
2023/06/17 00:33:12;;;;;;;;;;;;;;;;;;5025315;27;89677;-67
2023/06/17 00:35:37;;;;;;;;;;;;;;;;;;5026743;27;89745;-68
2023/06/17 00:38:02;;;;;;;;;;;;;;;;;;5030973;27;89654;-71
2023/06/17 00:40:27;;;;;;;;;;;;;;;;;;5019865;27;89852;-67
2023/06/17 00:42:52;;;;;;;;;;;;;;;;;;5026731;28;89436;-66
2023/06/17 00:45:18;;;;;;;;;;;;;;;;;;5027033;28;90468;-68
2023/06/17 00:47:43;;;;;;;;;;;;;;;;;;5022363;28;89374;-68
2023/06/17 00:50:09;;;;;;;;;;;;;;;;;;5025595;28;90700;-66
2023/06/17 00:52:36;;;;;;;;;;;;;;;;;;5024781;27;90926;-69
2023/06/17 00:55:01;;;;;;;;;;;;;;;;;;5025195;27;89417;-67
2023/06/17 00:57:28;;;;;;;;;;;;;;;;;;5026827;27;89117;-67
2023/06/17 00:59:54;;;;;;;;;;;;;;;;;;5024661;28;89698;-68
2023/06/17 01:02:19;;;;;;;;;;;;;;;;;;5022301;27;89765;-68
2023/06/17 01:04:48;;;;;;;;;;;;;;;;;;5029357;28;89059;-71
2023/06/17 01:07:23;;;;;;;;;;;;;;;;;;5026077;28;90214;-71
2023/06/17 01:09:51;;;;;;;;;;;;;;;;;;5026334;28;89626;-73
2023/06/17 01:12:17;;;;;;;;;;;;;;;;;;5018884;28;89344;-73
2023/06/17 01:14:42;;;;;;;;;;;;;;;;;;5025561;28;90583;-71
2023/06/17 01:17:10;;;;;;;;;;;;;;;;;;5025541;27;89484;-73
2023/06/17 01:19:35;;;;;;;;;;;;;;;;;;5026197;27;89762;-72
2023/06/17 01:22:00;;;;;;;;;;;;;;;;;;5024442;27;89952;-74
2023/06/17 01:24:30;;;;;;;;;;;;;;;;;;5024094;28;89027;-74
2023/06/17 01:26:59;;;;;;;;;;;;;;;;;;5025996;27;89685;-70
2023/06/17 01:29:26;;;;;;;;;;;;;;;;;;5024514;27;89617;-71
2023/06/17 01:31:51;;;;;;;;;;;;;;;;;;5025534;27;90166;-69
2023/06/17 01:34:19;;;;;;;;;;;;;;;;;;5026658;27;89614;-71
2023/06/17 01:36:45;;;;;;;;;;;;;;;;;;5025539;27;89679;-72
2023/06/17 01:39:13;;;;;;;;;;;;;;;;;;5025452;28;89946;-70
2023/06/17 01:41:39;;;;;;;;;;;;;;;;;;5025098;27;89373;-72
2023/06/17 01:44:04;;;;;;;;;;;;;;;;;;5026488;28;89533;-73
2023/06/17 01:46:30;;;;;;;;;;;;;;;;;;5030997;27;89624;-69
2023/06/17 01:48:55;;;;;;;;;;;;;;;;;;5028946;27;89457;-71
2023/06/17 01:51:21;;;;;;;;;;;;;;;;;;5031553;27;92221;-70
2023/06/17 01:53:46;;;;;;;;;;;;;;;;;;5029069;28;89839;-70
2023/06/17 01:56:12;;;;;;;;;;;;;;;;;;5027688;28;90185;-67
2023/06/17 01:58:38;;;;;;;;;;;;;;;;;;5028182;27;90015;-67
2023/06/17 02:01:03;;;;;;;;;;;;;;;;;;5025310;27;89421;-68
2023/06/17 02:03:29;;;;;;;;;;;;;;;;;;5025925;28;89591;-69
2023/06/17 02:05:54;;;;;;;;;;;;;;;;;;5028517;27;90089;-71
2023/06/17 02:08:21;;;;;;;;;;;;;;;;;;5031559;27;89765;-72
2023/06/17 02:10:46;;;;;;;;;;;;;;;;;;5025409;28;89751;-72
2023/06/17 02:13:11;;;;;;;;;;;;;;;;;;5027527;27;90651;-73
2023/06/17 02:15:38;;;;;;;;;;;;;;;;;;5029301;28;89738;-70
2023/06/17 02:18:04;;;;;;;;;;;;;;;;;;5028434;28;90705;-72
2023/06/17 02:20:29;;;;;;;;;;;;;;;;;;5028495;28;89199;-72
2023/06/17 02:22:54;;;;;;;;;;;;;;;;;;5025008;28;89396;-72
2023/06/17 02:25:19;;;;;;;;;;;;;;;;;;5028546;28;89968;-69
2023/06/17 02:27:45;;;;;;;;;;;;;;;;;;5028272;28;89533;-70
2023/06/17 02:30:10;;;;;;;;;;;;;;;;;;5031710;27;89038;-66
2023/06/17 02:32:36;;;;;;;;;;;;;;;;;;5025485;28;89427;-69
2023/06/17 02:35:02;;;;;;;;;;;;;;;;;;5028403;28;89506;-70
2023/06/17 02:37:27;;;;;;;;;;;;;;;;;;5022526;27;90792;-72
2023/06/17 02:39:52;;;;;;;;;;;;;;;;;;5028495;28;90224;-70
2023/06/17 02:42:17;;;;;;;;;;;;;;;;;;5024141;28;89365;-66
2023/06/17 02:44:43;;;;;;;;;;;;;;;;;;5027014;28;89789;-68
2023/06/17 02:47:08;;;;;;;;;;;;;;;;;;5027295;28;89698;-65
2023/06/17 02:49:33;;;;;;;;;;;;;;;;;;5036805;27;89084;-69
2023/06/17 02:51:58;;;;;;;;;;;;;;;;;;5029606;28;89685;-66
2023/06/17 02:54:24;;;;;;;;;;;;;;;;;;5027491;28;89510;-67
2023/06/17 02:56:49;;;;;;;;;;;;;;;;;;5028075;27;89703;-66
2023/06/17 02:59:15;;;;;;;;;;;;;;;;;;5027886;28;89853;-67
2023/06/17 03:01:42;;;;;;;;;;;;;;;;;;5026507;27;89177;-68
2023/06/17 03:04:10;;;;;;;;;;;;;;;;;;5027173;28;89731;-66
2023/06/17 03:06:35;;;;;;;;;;;;;;;;;;5027877;28;89992;-66
2023/06/17 03:09:03;;;;;;;;;;;;;;;;;;5025685;27;89610;-72
2023/06/17 03:11:28;;;;;;;;;;;;;;;;;;5023136;28;90972;-70
2023/06/17 03:13:54;;;;;;;;;;;;;;;;;;5029982;28;89683;-69
2023/06/17 03:16:19;;;;;;;;;;;;;;;;;;5029060;27;89677;-70
2023/06/17 03:18:45;;;;;;;;;;;;;;;;;;5028909;27;89209;-69
2023/06/17 03:21:10;;;;;;;;;;;;;;;;;;5029452;28;89156;-72
2023/06/17 03:23:35;;;;;;;;;;;;;;;;;;5028148;28;89702;-69
2023/06/17 03:26:00;;;;;;;;;;;;;;;;;;5029522;28;90261;-72
2023/06/17 03:28:26;;;;;;;;;;;;;;;;;;5026609;28;89035;-67
2023/06/17 03:30:52;;;;;;;;;;;;;;;;;;5019348;27;89887;-66
2023/06/17 03:33:17;;;;;;;;;;;;;;;;;;5029418;27;89111;-66
2023/06/17 03:35:43;;;;;;;;;;;;;;;;;;5023343;27;90683;-71
2023/06/17 03:38:09;;;;;;;;;;;;;;;;;;5025219;27;89379;-70
2023/06/17 03:40:35;;;;;;;;;;;;;;;;;;5022119;27;89340;-72
2023/06/17 03:43:00;;;;;;;;;;;;;;;;;;5023153;27;89425;-73
2023/06/17 03:45:27;;;;;;;;;;;;;;;;;;5038500;27;93247;-73
2023/06/17 03:47:53;;;;;;;;;;;;;;;;;;5023119;28;91603;-70
2023/06/17 03:50:18;;;;;;;;;;;;;;;;;;5020119;28;90408;-74
2023/06/17 03:52:43;;;;;;;;;;;;;;;;;;5022383;28;89238;-73
2023/06/17 03:55:08;;;;;;;;;;;;;;;;;;5025822;28;89899;-70
2023/06/17 03:57:34;;;;;;;;;;;;;;;;;;5025026;28;89362;-75
2023/06/17 03:59:59;;;;;;;;;;;;;;;;;;5022105;28;89454;-75
2023/06/17 04:02:24;;;;;;;;;;;;;;;;;;5024138;28;89782;-74
2023/06/17 04:04:52;;;;;;;;;;;;;;;;;;5025716;28;89273;-74
2023/06/17 04:07:18;;;;;;;;;;;;;;;;;;5025382;28;89685;-75
2023/06/17 04:09:43;;;;;;;;;;;;;;;;;;5022935;27;89699;-72
2023/06/17 04:12:08;;;;;;;;;;;;;;;;;;5023184;28;89817;-73
2023/06/17 04:14:33;;;;;;;;;;;;;;;;;;5036672;27;89393;-69
2023/06/17 04:16:59;;;;;;;;;;;;;;;;;;5027570;28;89633;-68
2023/06/17 04:19:24;;;;;;;;;;;;;;;;;;5021807;27;90037;-72
2023/06/17 04:21:50;;;;;;;;;;;;;;;;;;5024068;28;89586;-70
2023/06/17 04:24:15;;;;;;;;;;;;;;;;;;5023356;28;89406;-74
2023/06/17 04:26:43;;;;;;;;;;;;;;;;;;5020802;28;89079;-72
2023/06/17 04:29:08;;;;;;;;;;;;;;;;;;5024240;28;89903;-69
2023/06/17 04:31:35;;;;;;;;;;;;;;;;;;5024696;27;89562;-73
2023/06/17 04:34:01;;;;;;;;;;;;;;;;;;5023687;28;89088;-75
2023/06/17 04:36:27;;;;;;;;;;;;;;;;;;5023091;28;90137;-71
2023/06/17 04:38:53;;;;;;;;;;;;;;;;;;5023749;28;90366;-69
2023/06/17 04:41:19;;;;;;;;;;;;;;;;;;5024478;28;89784;-73
2023/06/17 04:43:48;;;;;;;;;;;;;;;;;;5022919;27;90836;-74
2023/06/17 04:46:13;;;;;;;;;;;;;;;;;;5019799;28;89563;-69
2023/06/17 04:48:39;;;;;;;;;;;;;;;;;;5021984;28;90008;-71
2023/06/17 04:51:07;;;;;;;;;;;;;;;;;;5021329;28;90230;-67
2023/06/17 04:53:33;;;;;;;;;;;;;;;;;;5014444;28;90452;-71
2023/06/17 04:55:58;;;;;;;;;;;;;;;;;;5024388;27;89650;-68
2023/06/17 04:58:23;;;;;;;;;;;;;;;;;;5022737;27;90460;-68
2023/06/17 05:00:48;;;;;;;;;;;;;;;;;;5027870;28;89172;-71
2023/06/17 05:03:14;;;;;;;;;;;;;;;;;;5023155;28;89506;-71
2023/06/17 05:05:39;;;;;;;;;;;;;;;;;;5024025;28;89198;-67
2023/06/17 05:08:05;;;;;;;;;;;;;;;;;;5022676;27;91001;-65
2023/06/17 05:10:30;;;;;;;;;;;;;;;;;;5018366;28;90021;-67
2023/06/17 05:12:55;;;;;;;;;;;;;;;;;;5022648;28;89716;-68
2023/06/17 05:15:20;;;;;;;;;;;;;;;;;;5021348;28;89604;-72
2023/06/17 05:17:46;;;;;;;;;;;;;;;;;;5023609;28;90066;-73
2023/06/17 05:20:11;;;;;;;;;;;;;;;;;;5021663;28;89920;-65
2023/06/17 05:22:36;;;;;;;;;;;;;;;;;;5023974;27;89031;-74
2023/06/17 05:25:01;;;;;;;;;;;;;;;;;;5022262;28;89034;-74
2023/06/17 05:27:27;;;;;;;;;;;;;;;;;;5021325;28;89594;-65
2023/06/17 05:29:52;;;;;;;;;;;;;;;;;;5023453;27;89182;-74
2023/06/17 05:32:18;;;;;;;;;;;;;;;;;;5022625;28;90867;-69
2023/06/17 05:34:43;;;;;;;;;;;;;;;;;;5023110;28;89910;-67
2023/06/17 05:37:08;;;;;;;;;;;;;;;;;;5024468;27;90103;-71
2023/06/17 05:39:33;;;;;;;;;;;;;;;;;;5020616;28;89662;-71
2023/06/17 05:41:59;;;;;;;;;;;;;;;;;;5018597;28;92354;-66
2023/06/17 05:44:24;;;;;;;;;;;;;;;;;;5025380;28;91175;-69
2023/06/17 05:46:49;;;;;;;;;;;;;;;;;;5023064;27;89646;-66
2023/06/17 05:49:15;;;;;;;;;;;;;;;;;;5021174;28;89907;-71
2023/06/17 05:51:40;;;;;;;;;;;;;;;;;;5022524;27;89688;-69
2023/06/17 05:54:06;;;;;;;;;;;;;;;;;;5024065;27;91018;-73
2023/06/17 05:56:31;;;;;;;;;;;;;;;;;;5017015;28;89879;-73
2023/06/17 05:58:56;;;;;;;;;;;;;;;;;;5020989;28;89848;-72
2023/06/17 06:01:21;;;;;;;;;;;;;;;;;;5021301;28;89047;-72
2023/06/17 06:03:46;;;;;;;;;;;;;;;;;;5025904;28;89280;-72
2023/06/17 06:06:12;;;;;;;;;;;;;;;;;;5020671;28;89599;-71
2023/06/17 06:08:37;;;;;;;;;;;;;;;;;;5022122;28;89919;-75
2023/06/17 06:11:02;;;;;;;;;;;;;;;;;;5020803;27;89857;-71
2023/06/17 06:13:28;;;;;;;;;;;;;;;;;;5023851;28;89258;-71
2023/06/17 06:15:53;;;;;;;;;;;;;;;;;;5016115;27;90196;-68
2023/06/17 06:18:19;;;;;;;;;;;;;;;;;;5016172;28;90805;-71
2023/06/17 06:20:44;;;;;;;;;;;;;;;;;;5021771;28;91270;-72
2023/06/17 06:23:09;;;;;;;;;;;;;;;;;;5022043;28;89942;-71
2023/06/17 06:25:35;;;;;;;;;;;;;;;;;;5022177;28;89716;-68
2023/06/17 06:28:00;;;;;;;;;;;;;;;;;;5020703;28;89596;-72
2023/06/17 06:30:25;;;;;;;;;;;;;;;;;;5025039;27;89529;-67
2023/06/17 06:32:51;;;;;;;;;;;;;;;;;;5023816;28;90887;-70
2023/06/17 06:35:16;;;;;;;;;;;;;;;;;;5022244;28;89714;-73
2023/06/17 06:37:41;;;;;;;;;;;;;;;;;;5026943;28;89756;-71
2023/06/17 06:40:07;;;;;;;;;;;;;;;;;;5040329;27;91190;-72
2023/06/17 06:42:32;;;;;;;;;;;;;;;;;;5021393;27;93009;-69
2023/06/17 06:44:57;;;;;;;;;;;;;;;;;;5016248;28;89150;-68
2023/06/17 06:47:22;;;;;;;;;;;;;;;;;;5025873;28;92602;-66
2023/06/17 06:49:48;;;;;;;;;;;;;;;;;;5023474;27;89490;-68
2023/06/17 06:52:13;;;;;;;;;;;;;;;;;;5022900;28;89865;-71
2023/06/17 06:54:38;;;;;;;;;;;;;;;;;;5027016;28;91862;-70
2023/06/17 06:57:03;;;;;;;;;;;;;;;;;;5026632;28;90055;-72
2023/06/17 06:59:29;;;;;;;;;;;;;;;;;;5023712;27;91254;-73
2023/06/17 07:01:54;;;;;;;;;;;;;;;;;;5022900;28;89593;-77
2023/06/17 07:04:20;;;;;;;;;;;;;;;;;;5023699;28;91577;-76
2023/06/17 07:06:46;;;;;;;;;;;;;;;;;;5022668;27;89873;-71
2023/06/17 07:09:11;;;;;;;;;;;;;;;;;;5027817;28;89346;-72
2023/06/17 07:11:36;;;;;;;;;;;;;;;;;;5022239;28;89747;-67
2023/06/17 07:14:01;;;;;;;;;;;;;;;;;;5024394;28;89225;-67
2023/06/17 07:16:27;;;;;;;;;;;;;;;;;;5023616;28;90523;-67
2023/06/17 07:18:52;;;;;;;;;;;;;;;;;;5025517;28;89669;-69
2023/06/17 07:21:17;;;;;;;;;;;;;;;;;;5022805;28;89646;-70
2023/06/17 07:23:42;;;;;;;;;;;;;;;;;;5020846;27;89117;-67
2023/06/17 07:26:07;;;;;;;;;;;;;;;;;;5022503;28;90845;-68
2023/06/17 07:28:33;;;;;;;;;;;;;;;;;;5027736;28;90443;-68
2023/06/17 07:30:59;;;;;;;;;;;;;;;;;;5023337;27;90064;-74
2023/06/17 07:33:25;;;;;;;;;;;;;;;;;;5024940;28;91818;-73
2023/06/17 07:35:50;;;;;;;;;;;;;;;;;;5017577;28;91233;-67
2023/06/17 07:38:16;;;;;;;;;;;;;;;;;;5023535;28;89600;-68
2023/06/17 07:40:41;;;;;;;;;;;;;;;;;;5023332;28;89997;-68
2023/06/17 07:43:06;;;;;;;;;;;;;;;;;;5025237;28;89395;-73
2023/06/17 07:45:31;;;;;;;;;;;;;;;;;;5023443;28;89714;-70
2023/06/17 07:47:56;;;;;;;;;;;;;;;;;;5018325;28;89509;-68
2023/06/17 07:50:22;;;;;;;;;;;;;;;;;;5025737;28;89523;-71
2023/06/17 07:52:47;;;;;;;;;;;;;;;;;;5023037;28;91327;-72
2023/06/17 07:55:12;;;;;;;;;;;;;;;;;;5025739;28;89797;-71
2023/06/17 07:57:38;;;;;;;;;;;;;;;;;;5024454;28;90826;-72
2023/06/17 08:00:09;;;;;;;;;;;;;;;;;;5025755;28;89906;-72
2023/06/17 08:02:35;;;;;;;;;;;;;;;;;;5021173;27;89482;-71
2023/06/17 08:05:00;;;;;;;;;;;;;;;;;;5024147;28;89711;-74
2023/06/17 08:07:26;;;;;;;;;;;;;;;;;;5022675;28;89915;-73
2023/06/17 08:09:51;;;;;;;;;;;;;;;;;;5021841;28;90514;-72
2023/06/17 08:12:16;;;;;;;;;;;;;;;;;;5027806;28;89751;-73
2023/06/17 08:14:41;;;;;;;;;;;;;;;;;;5019088;27;89052;-73
2023/06/17 08:17:07;;;;;;;;;;;;;;;;;;5017944;27;89665;-72
2023/06/17 08:19:33;;;;;;;;;;;;;;;;;;5019853;28;89898;-73
2023/06/17 08:21:58;;;;;;;;;;;;;;;;;;5020303;28;89110;-72
2023/06/17 08:24:26;;;;;;;;;;;;;;;;;;5035401;27;92100;-74
2023/06/17 08:26:52;;;;;;;;;;;;;;;;;;5023534;27;89553;-74
2023/06/17 08:29:18;;;;;;;;;;;;;;;;;;5022221;27;90025;-73
2023/06/17 08:31:46;;;;;;;;;;;;;;;;;;5018574;28;90535;-74
2023/06/17 08:34:12;;;;;;;;;;;;;;;;;;5021056;28;89813;-73
2023/06/17 08:36:40;;;;;;;;;;;;;;;;;;5023649;27;89641;-73
2023/06/17 08:39:05;;;;;;;;;;;;;;;;;;5013504;28;91958;-72
2023/06/17 08:41:36;;;;;;;;;;;;;;;;;;5025187;27;89703;-73
2023/06/17 08:44:01;;;;;;;;;;;;;;;;;;5023200;28;89974;-73
2023/06/17 08:46:27;;;;;;;;;;;;;;;;;;5016208;28;89168;-73
2023/06/17 08:49:02;;;;;;;;;;;;;;;;;;5022743;28;89406;-73
2023/06/17 08:51:27;;;;;;;;;;;;;;;;;;5018754;28;91219;-74
2023/06/17 08:53:52;;;;;;;;;;;;;;;;;;5020505;28;89614;-72
2023/06/17 08:56:18;;;;;;;;;;;;;;;;;;5023614;27;89851;-71
2023/06/17 08:58:44;;;;;;;;;;;;;;;;;;5024695;27;89781;-70
2023/06/17 09:01:10;;;;;;;;;;;;;;;;;;5035729;27;91059;-72
2023/06/17 09:03:36;;;;;;;;;;;;;;;;;;5019023;28;89798;-72
2023/06/17 09:06:02;;;;;;;;;;;;;;;;;;5019469;28;89805;-71
2023/06/17 09:08:27;;;;;;;;;;;;;;;;;;5020561;27;90268;-70
2023/06/17 09:10:52;;;;;;;;;;;;;;;;;;5023098;28;90095;-71
2023/06/17 09:13:18;;;;;;;;;;;;;;;;;;5017523;27;89695;-70
2023/06/17 09:15:43;;;;;;;;;;;;;;;;;;5022623;28;89418;-68
2023/06/17 09:18:09;;;;;;;;;;;;;;;;;;5026462;28;91061;-70
2023/06/17 09:20:34;;;;;;;;;;;;;;;;;;5021533;28;90082;-70
2023/06/17 09:22:59;;;;;;;;;;;;;;;;;;5024202;28;89883;-71
2023/06/17 09:25:24;;;;;;;;;;;;;;;;;;5024538;27;90009;-71
2023/06/17 09:27:51;;;;;;;;;;;;;;;;;;5025401;28;89523;-70
2023/06/17 09:30:17;;;;;;;;;;;;;;;;;;5024350;27;89817;-71
2023/06/17 09:32:42;;;;;;;;;;;;;;;;;;5023076;28;89271;-69
2023/06/17 09:35:14;;;;;;;;;;;;;;;;;;5024396;27;89456;-71
2023/06/17 09:37:40;;;;;;;;;;;;;;;;;;5024768;28;89666;-71
2023/06/17 09:40:06;;;;;;;;;;;;;;;;;;5025278;27;89727;-71
2023/06/17 09:42:32;;;;;;;;;;;;;;;;;;5025813;28;90314;-70
2023/06/17 09:45:03;;;;;;;;;;;;;;;;;;5016223;28;89807;-69
2023/06/17 09:47:32;;;;;;;;;;;;;;;;;;5024399;28;89086;-70
2023/06/17 09:50:01;;;;;;;;;;;;;;;;;;5024986;27;89231;-69
2023/06/17 09:52:28;;;;;;;;;;;;;;;;;;5025357;27;90259;-69
2023/06/17 09:54:54;;;;;;;;;;;;;;;;;;5022886;28;89236;-71
2023/06/17 09:57:20;;;;;;;;;;;;;;;;;;5025125;28;89727;-72
2023/06/17 09:59:47;;;;;;;;;;;;;;;;;;5028298;27;90112;-71
2023/06/17 10:02:12;;;;;;;;;;;;;;;;;;5021152;27;90831;-72
2023/06/17 10:04:37;;;;;;;;;;;;;;;;;;5025208;28;90936;-71
2023/06/17 10:07:03;;;;;;;;;;;;;;;;;;5029293;28;90677;-71
2023/06/17 10:09:29;;;;;;;;;;;;;;;;;;5029264;27;90971;-71
2023/06/17 10:11:55;;;;;;;;;;;;;;;;;;5026757;27;90518;-71
2023/06/17 10:14:23;;;;;;;;;;;;;;;;;;5024882;28;89184;-71
2023/06/17 10:16:50;;;;;;;;;;;;;;;;;;5026248;27;89620;-70
2023/06/17 10:19:22;;;;;;;;;;;;;;;;;;5026025;27;89677;-71
2023/06/17 10:21:50;;;;;;;;;;;;;;;;;;5029443;27;89493;-71
2023/06/17 10:24:16;;;;;;;;;;;;;;;;;;5024031;28;89721;-70
2023/06/17 10:26:41;;;;;;;;;;;;;;;;;;5022429;28;90300;-70
2023/06/17 10:29:07;;;;;;;;;;;;;;;;;;5027227;28;90226;-70
2023/06/17 10:31:40;;;;;;;;;;;;;;;;;;5028027;28;89883;-71
2023/06/17 10:34:05;;;;;;;;;;;;;;;;;;5028037;28;89044;-71
2023/06/17 10:36:35;;;;;;;;;;;;;;;;;;5022987;27;90041;-70
2023/06/17 10:39:04;;;;;;;;;;;;;;;;;;5025716;28;89555;-74
2023/06/17 10:41:39;;;;;;;;;;;;;;;;;;5023019;27;89750;-73
2023/06/17 10:44:22;;;;;;;;;;;;;;;;;;5019037;28;90501;-71
2023/06/17 10:46:51;;;;;;;;;;;;;;;;;;5024637;28;89067;-73
2023/06/17 10:49:20;;;;;;;;;;;;;;;;;;5016203;28;90266;-71
2023/06/17 10:51:46;;;;;;;;;;;;;;;;;;5022897;28;90261;-72
2023/06/17 10:54:11;;;;;;;;;;;;;;;;;;5024264;28;89486;-74
2023/06/17 10:56:46;;;;;;;;;;;;;;;;;;5021354;27;90964;-72
2023/06/17 10:59:12;;;;;;;;;;;;;;;;;;5023437;27;89952;-74
2023/06/17 11:01:41;;;;;;;;;;;;;;;;;;5023689;28;90313;-73
2023/06/17 11:04:10;;;;;;;;;;;;;;;;;;5022982;28;88992;-72
2023/06/17 11:06:35;;;;;;;;;;;;;;;;;;5024096;28;89735;-72
2023/06/17 11:09:04;;;;;;;;;;;;;;;;;;5025360;28;89855;-72
2023/06/17 11:11:29;;;;;;;;;;;;;;;;;;5018596;27;90489;-73
2023/06/17 11:13:54;;;;;;;;;;;;;;;;;;5022357;28;90729;-75
2023/06/17 11:16:20;;;;;;;;;;;;;;;;;;5016088;27;91480;-71
2023/06/17 11:18:45;;;;;;;;;;;;;;;;;;5025382;28;89153;-73
2023/06/17 11:21:10;;;;;;;;;;;;;;;;;;5024973;28;89076;-71
2023/06/17 11:23:38;;;;;;;;;;;;;;;;;;5020137;28;90491;-74
2023/06/17 11:26:04;;;;;;;;;;;;;;;;;;5023543;28;90991;-72
2023/06/17 11:28:30;;;;;;;;;;;;;;;;;;5024374;27;91846;-74
2023/06/17 11:30:56;;;;;;;;;;;;;;;;;;5020847;27;89261;-75
2023/06/17 11:33:21;;;;;;;;;;;;;;;;;;5025780;27;89291;-70
2023/06/17 11:35:48;;;;;;;;;;;;;;;;;;5017208;28;90966;-74
2023/06/17 11:38:14;;;;;;;;;;;;;;;;;;5024323;27;89631;-73
2023/06/17 11:40:41;;;;;;;;;;;;;;;;;;5024680;27;89628;-73
2023/06/17 11:43:06;;;;;;;;;;;;;;;;;;5024024;27;89820;-71
2023/06/17 11:45:32;;;;;;;;;;;;;;;;;;5023388;28;90328;-73
2023/06/17 11:47:57;;;;;;;;;;;;;;;;;;5026466;27;89027;-74
2023/06/17 11:50:27;;;;;;;;;;;;;;;;;;5024035;28;89216;-72
2023/06/17 11:52:54;;;;;;;;;;;;;;;;;;5023404;28;90885;-73
2023/06/17 11:55:19;;;;;;;;;;;;;;;;;;5022229;27;90656;-72
2023/06/17 11:57:44;;;;;;;;;;;;;;;;;;5024783;28;90154;-73
2023/06/17 12:00:10;;;;;;;;;;;;;;;;;;5019819;28;89787;-74
2023/06/17 12:02:35;;;;;;;;;;;;;;;;;;5024165;28;89853;-71
2023/06/17 12:05:02;;;;;;;;;;;;;;;;;;5020570;28;89412;-71
2023/06/17 12:07:27;;;;;;;;;;;;;;;;;;5021893;27;89783;-70
2023/06/17 12:09:54;;;;;;;;;;;;;;;;;;5026495;28;89977;-69
2023/06/17 12:12:32;;;;;;;;;;;;;;;;;;5018353;27;89354;-70
2023/06/17 12:14:58;;;;;;;;;;;;;;;;;;5018876;28;89696;-73
2023/06/17 12:17:24;;;;;;;;;;;;;;;;;;5021151;28;91192;-72
2023/06/17 12:19:49;;;;;;;;;;;;;;;;;;5020118;28;90162;-72
2023/06/17 12:22:14;;;;;;;;;;;;;;;;;;5023510;28;89762;-72
2023/06/17 12:24:40;;;;;;;;;;;;;;;;;;5022487;28;89798;-71
2023/06/17 12:27:07;;;;;;;;;;;;;;;;;;5023119;28;90368;-73
2023/06/17 12:29:32;;;;;;;;;;;;;;;;;;5023929;27;90468;-74
2023/06/17 12:31:57;;;;;;;;;;;;;;;;;;5025605;27;92294;-72
2023/06/17 12:34:22;;;;;;;;;;;;;;;;;;5038659;27;92314;-75
2023/06/17 12:36:48;;;;;;;;;;;;;;;;;;5023155;28;92097;-72
2023/06/17 12:39:14;;;;;;;;;;;;;;;;;;5023654;27;89333;-75
2023/06/17 12:41:39;;;;;;;;;;;;;;;;;;5020710;28;90066;-77
2023/06/17 12:44:04;;;;;;;;;;;;;;;;;;5022411;27;89954;-76
2023/06/17 12:46:32;;;;;;;;;;;;;;;;;;5014341;28;89330;-76
2023/06/17 12:48:57;;;;;;;;;;;;;;;;;;5021623;27;91922;-76
2023/06/17 12:51:22;;;;;;;;;;;;;;;;;;5034037;27;92248;-76
2023/06/17 12:53:48;;;;;;;;;;;;;;;;;;5024622;28;91529;-77
2023/06/17 12:56:13;;;;;;;;;;;;;;;;;;5017610;27;89807;-78
2023/06/17 12:58:39;;;;;;;;;;;;;;;;;;5021553;28;91037;-76
2023/06/17 13:01:05;;;;;;;;;;;;;;;;;;5019024;28;90635;-76
2023/06/17 13:03:30;;;;;;;;;;;;;;;;;;5024031;28;90699;-75
2023/06/17 13:05:55;;;;;;;;;;;;;;;;;;5020489;28;89798;-75
2023/06/17 13:08:21;;;;;;;;;;;;;;;;;;5023831;28;89582;-75
2023/06/17 13:10:46;;;;;;;;;;;;;;;;;;5022059;28;89851;-74
2023/06/17 13:13:11;;;;;;;;;;;;;;;;;;5021610;27;90231;-75
2023/06/17 13:15:37;;;;;;;;;;;;;;;;;;5024069;28;90152;-75
2023/06/17 13:18:03;;;;;;;;;;;;;;;;;;5022697;28;91317;-75
2023/06/17 13:20:28;;;;;;;;;;;;;;;;;;5024464;28;91769;-75
2023/06/17 13:22:53;;;;;;;;;;;;;;;;;;5016740;28;89959;-76
2023/06/17 13:25:19;;;;;;;;;;;;;;;;;;5021897;27;89549;-75
2023/06/17 13:27:44;;;;;;;;;;;;;;;;;;5020291;28;90111;-75
2023/06/17 13:30:10;;;;;;;;;;;;;;;;;;5023209;27;89984;-76
2023/06/17 13:32:36;;;;;;;;;;;;;;;;;;5023131;28;89672;-77
2023/06/17 13:35:02;;;;;;;;;;;;;;;;;;5020349;28;90430;-75
2023/06/17 13:37:29;;;;;;;;;;;;;;;;;;5022434;28;89572;-75
2023/06/17 13:39:55;;;;;;;;;;;;;;;;;;5026583;27;89689;-75
2023/06/17 13:42:21;;;;;;;;;;;;;;;;;;5022664;27;89654;-75
2023/06/17 13:44:46;;;;;;;;;;;;;;;;;;5023505;28;89845;-77
2023/06/17 13:47:14;;;;;;;;;;;;;;;;;;5026740;28;90051;-77
2023/06/17 13:49:39;;;;;;;;;;;;;;;;;;5024158;28;90771;-78
2023/06/17 13:52:05;;;;;;;;;;;;;;;;;;5026554;27;89519;-76
2023/06/17 13:54:33;;;;;;;;;;;;;;;;;;5025889;28;91455;-75
2023/06/17 13:56:58;;;;;;;;;;;;;;;;;;5023011;28;91954;-75
2023/06/17 13:59:24;;;;;;;;;;;;;;;;;;5022971;28;90001;-77
2023/06/17 14:01:49;;;;;;;;;;;;;;;;;;5024836;27;89708;-77
2023/06/17 14:04:14;;;;;;;;;;;;;;;;;;5025210;28;89591;-73
2023/06/17 14:06:40;;;;;;;;;;;;;;;;;;5023037;27;91835;-76
2023/06/17 14:09:06;;;;;;;;;;;;;;;;;;5025096;27;89494;-75
2023/06/17 14:11:31;;;;;;;;;;;;;;;;;;5023847;28;89805;-75
2023/06/17 14:13:57;;;;;;;;;;;;;;;;;;5025034;27;89616;-76
2023/06/17 14:16:22;;;;;;;;;;;;;;;;;;5023042;28;89196;-76
2023/06/17 14:18:47;;;;;;;;;;;;;;;;;;5027525;28;89774;-74
2023/06/17 14:21:42;;;;;;;;;;;;;;;;;;5022980;27;91990;-72
2023/06/17 14:24:08;;;;;;;;;;;;;;;;;;5015610;28;89529;-74
2023/06/17 14:26:35;;;;;;;;;;;;;;;;;;5023210;27;89595;-73
2023/06/17 14:29:01;;;;;;;;;;;;;;;;;;5022863;27;89252;-74
2023/06/17 14:31:26;;;;;;;;;;;;;;;;;;5023236;27;89571;-74
2023/06/17 14:33:51;;;;;;;;;;;;;;;;;;5024866;27;90500;-76
2023/06/17 14:36:17;;;;;;;;;;;;;;;;;;5020525;28;89883;-76
2023/06/17 14:38:42;;;;;;;;;;;;;;;;;;5024990;28;89163;-75
2023/06/17 14:41:07;;;;;;;;;;;;;;;;;;5030226;27;89577;-75
2023/06/17 14:43:32;;;;;;;;;;;;;;;;;;5026282;28;89578;-75
2023/06/17 14:45:58;;;;;;;;;;;;;;;;;;5021907;28;90064;-74
2023/06/17 14:48:24;;;;;;;;;;;;;;;;;;5027211;28;89787;-75
2023/06/17 14:50:50;;;;;;;;;;;;;;;;;;5026370;28;90755;-75
2023/06/17 14:53:26;;;;;;;;;;;;;;;;;;5027081;28;89807;-75
2023/06/17 14:55:55;;;;;;;;;;;;;;;;;;5025643;28;89466;-76
2023/06/17 14:58:20;;;;;;;;;;;;;;;;;;5020314;28;91212;-76
2023/06/17 15:00:45;;;;;;;;;;;;;;;;;;5019146;28;91146;-76
2023/06/17 15:03:11;;;;;;;;;;;;;;;;;;5026881;28;92171;-74
2023/06/17 15:05:36;;;;;;;;;;;;;;;;;;5024271;28;89717;-76
2023/06/17 15:08:02;;;;;;;;;;;;;;;;;;5039406;27;92132;-73
2023/06/17 15:10:27;;;;;;;;;;;;;;;;;;5025286;27;89987;-75
2023/06/17 15:12:52;;;;;;;;;;;;;;;;;;5026414;28;90312;-76
2023/06/17 15:15:17;;;;;;;;;;;;;;;;;;5026663;28;89596;-75
2023/06/17 15:17:43;;;;;;;;;;;;;;;;;;5026042;27;89279;-75
2023/06/17 15:20:09;;;;;;;;;;;;;;;;;;5022413;28;90074;-74
2023/06/17 15:22:34;;;;;;;;;;;;;;;;;;5019719;27;90650;-75
2023/06/17 15:25:00;;;;;;;;;;;;;;;;;;5025543;28;89102;-75
2023/06/17 15:27:25;;;;;;;;;;;;;;;;;;5025872;28;89718;-74
2023/06/17 15:29:50;;;;;;;;;;;;;;;;;;5023490;28;89460;-75
2023/06/17 15:32:15;;;;;;;;;;;;;;;;;;5025528;28;89636;-76
2023/06/17 15:34:40;;;;;;;;;;;;;;;;;;5041929;27;92620;-74
2023/06/17 15:37:06;;;;;;;;;;;;;;;;;;5022147;28;89200;-75
2023/06/17 15:39:32;;;;;;;;;;;;;;;;;;5024338;28;89775;-75
2023/06/17 15:41:57;;;;;;;;;;;;;;;;;;5023543;28;91193;-76
2023/06/17 15:44:22;;;;;;;;;;;;;;;;;;5018674;28;89043;-75
2023/06/17 15:46:48;;;;;;;;;;;;;;;;;;5024626;28;89677;-73
2023/06/17 15:49:13;;;;;;;;;;;;;;;;;;5023993;28;90552;-78
2023/06/17 15:51:39;;;;;;;;;;;;;;;;;;5020187;27;89759;-74
2023/06/17 15:54:05;;;;;;;;;;;;;;;;;;5022087;28;89536;-78
2023/06/17 15:56:30;;;;;;;;;;;;;;;;;;5020141;27;89172;-78
2023/06/17 15:58:56;;;;;;;;;;;;;;;;;;5024515;27;89601;-75
2023/06/17 16:01:21;;;;;;;;;;;;;;;;;;5023055;28;89405;-75
2023/06/17 16:03:46;;;;;;;;;;;;;;;;;;5026067;28;89383;-78
2023/06/17 16:06:12;;;;;;;;;;;;;;;;;;5027110;28;90038;-72
2023/06/17 16:08:38;;;;;;;;;;;;;;;;;;5023622;27;89796;-77
2023/06/17 16:11:03;;;;;;;;;;;;;;;;;;5023680;27;91413;-76
2023/06/17 16:13:29;;;;;;;;;;;;;;;;;;5025297;28;90259;-74
2023/06/17 16:15:54;;;;;;;;;;;;;;;;;;5023689;28;90428;-75
2023/06/17 16:18:20;;;;;;;;;;;;;;;;;;5018680;28;90234;-76
2023/06/17 16:20:46;;;;;;;;;;;;;;;;;;5022880;28;91665;-75
2023/06/17 16:23:11;;;;;;;;;;;;;;;;;;5023351;28;89531;-79
2023/06/17 16:25:36;;;;;;;;;;;;;;;;;;5025105;27;93550;-75
2023/06/17 16:28:02;;;;;;;;;;;;;;;;;;5027001;28;90005;-76
2023/06/17 16:30:27;;;;;;;;;;;;;;;;;;5019581;28;89687;-73
2023/06/17 16:32:52;;;;;;;;;;;;;;;;;;5025044;28;89333;-72
2023/06/17 16:35:18;;;;;;;;;;;;;;;;;;5021877;27;89010;-77
2023/06/17 16:37:43;;;;;;;;;;;;;;;;;;5022237;28;90483;-73